sensor_id;sensor_type;location;lat;lon;timestamp;pressure;altitude;pressure_sealevel;temperature;humidity
15998;BME280;8103;51.340;12.326;2023-01-31T00:01:39;100405.78;;;5.66;82.41
15998;BME280;8103;51.340;12.326;2023-01-31T00:04:10;100408.09;;;5.63;81.56
15998;BME280;8103;51.340;12.326;2023-01-31T00:06:43;100417.69;;;5.64;80.48
15998;BME280;8103;51.340;12.326;2023-01-31T00:09:17;100421.31;;;5.69;79.45
15998;BME280;8103;51.340;12.326;2023-01-31T00:11:45;100417.81;;;5.75;79.45
15998;BME280;8103;51.340;12.326;2023-01-31T00:14:18;100433.94;;;5.80;78.14
15998;BME280;8103;51.340;12.326;2023-01-31T00:16:46;100430.47;;;5.86;77.72
15998;BME280;8103;51.340;12.326;2023-01-31T00:19:12;100432.47;;;5.91;77.57
15998;BME280;8103;51.340;12.326;2023-01-31T00:21:39;100441.88;;;5.93;77.46
15998;BME280;8103;51.340;12.326;2023-01-31T00:24:12;100433.47;;;5.96;76.64
15998;BME280;8103;51.340;12.326;2023-01-31T00:26:39;100431.97;;;6.00;77.34
15998;BME280;8103;51.340;12.326;2023-01-31T00:29:06;100434.44;;;6.02;76.70
15998;BME280;8103;51.340;12.326;2023-01-31T00:31:34;100434.66;;;6.00;76.58
15998;BME280;8103;51.340;12.326;2023-01-31T00:34:01;100442.41;;;6.02;76.76
15998;BME280;8103;51.340;12.326;2023-01-31T00:36:33;100435.84;;;6.04;77.22
15998;BME280;8103;51.340;12.326;2023-01-31T00:39:03;100446.22;;;6.12;76.79
15998;BME280;8103;51.340;12.326;2023-01-31T00:41:30;100444.59;;;6.11;76.74
15998;BME280;8103;51.340;12.326;2023-01-31T00:43:57;100446.44;;;6.11;76.22
15998;BME280;8103;51.340;12.326;2023-01-31T00:46:25;100445.41;;;6.12;76.46
15998;BME280;8103;51.340;12.326;2023-01-31T00:48:53;100458.91;;;6.10;76.21
15998;BME280;8103;51.340;12.326;2023-01-31T00:51:24;100458.91;;;6.10;76.47
15998;BME280;8103;51.340;12.326;2023-01-31T00:53:53;100465.72;;;6.06;76.60
15998;BME280;8103;51.340;12.326;2023-01-31T00:56:23;100459.44;;;5.94;77.89
15998;BME280;8103;51.340;12.326;2023-01-31T00:58:51;100462.81;;;5.83;78.43
15998;BME280;8103;51.340;12.326;2023-01-31T01:01:27;100465.31;;;5.72;77.97
15998;BME280;8103;51.340;12.326;2023-01-31T01:03:56;100473.56;;;5.57;77.99
15998;BME280;8103;51.340;12.326;2023-01-31T01:06:25;100478.09;;;5.50;78.43
15998;BME280;8103;51.340;12.326;2023-01-31T01:08:54;100483.06;;;5.40;79.41
15998;BME280;8103;51.340;12.326;2023-01-31T01:11:25;100472.03;;;5.37;79.29
15998;BME280;8103;51.340;12.326;2023-01-31T01:13:54;100480.81;;;5.37;79.46
15998;BME280;8103;51.340;12.326;2023-01-31T01:16:35;100492.50;;;5.36;79.50
15998;BME280;8103;51.340;12.326;2023-01-31T01:19:12;100501.88;;;5.39;79.98
15998;BME280;8103;51.340;12.326;2023-01-31T01:21:39;100497.19;;;5.41;80.12
15998;BME280;8103;51.340;12.326;2023-01-31T01:24:12;100504.94;;;5.42;80.71
15998;BME280;8103;51.340;12.326;2023-01-31T01:26:39;100502.09;;;5.37;80.92
15998;BME280;8103;51.340;12.326;2023-01-31T01:29:07;100508.44;;;5.36;81.26
15998;BME280;8103;51.340;12.326;2023-01-31T01:31:34;100516.59;;;5.41;81.20
15998;BME280;8103;51.340;12.326;2023-01-31T01:34:06;100502.91;;;5.38;81.04
15998;BME280;8103;51.340;12.326;2023-01-31T01:36:35;100500.69;;;5.35;81.30
15998;BME280;8103;51.340;12.326;2023-01-31T01:39:05;100496.16;;;5.35;81.62
15998;BME280;8103;51.340;12.326;2023-01-31T01:41:32;100501.91;;;5.32;82.44
15998;BME280;8103;51.340;12.326;2023-01-31T01:44:41;100494.75;;;5.33;82.82
15998;BME280;8103;51.340;12.326;2023-01-31T01:46:51;100519.50;;;5.33;83.18
15998;BME280;8103;51.340;12.326;2023-01-31T01:49:35;100505.16;;;5.34;83.74
15998;BME280;8103;51.340;12.326;2023-01-31T01:52:07;100502.09;;;5.37;83.37
15998;BME280;8103;51.340;12.326;2023-01-31T01:54:46;100505.94;;;5.41;82.81
15998;BME280;8103;51.340;12.326;2023-01-31T01:57:20;100501.44;;;5.48;82.43
15998;BME280;8103;51.340;12.326;2023-01-31T02:00:09;100520.06;;;5.48;82.84
15998;BME280;8103;51.340;12.326;2023-01-31T02:02:40;100517.41;;;5.48;82.95
15998;BME280;8103;51.340;12.326;2023-01-31T02:05:07;100519.00;;;5.49;82.42
15998;BME280;8103;51.340;12.326;2023-01-31T02:07:35;100522.72;;;5.48;83.04
15998;BME280;8103;51.340;12.326;2023-01-31T02:10:20;100524.75;;;5.46;83.19
15998;BME280;8103;51.340;12.326;2023-01-31T02:12:48;100531.28;;;5.50;83.81
15998;BME280;8103;51.340;12.326;2023-01-31T02:15:15;100535.38;;;5.46;83.58
15998;BME280;8103;51.340;12.326;2023-01-31T02:17:42;100523.13;;;5.45;83.22
15998;BME280;8103;51.340;12.326;2023-01-31T02:27:14;100519.00;;;5.49;82.60
15998;BME280;8103;51.340;12.326;2023-01-31T02:32:59;100551.69;;;5.56;82.61
15998;BME280;8103;51.340;12.326;2023-01-31T02:35:47;100554.19;;;5.51;82.33
15998;BME280;8103;51.340;12.326;2023-01-31T02:44:35;100565.25;;;5.48;81.76
15998;BME280;8103;51.340;12.326;2023-01-31T02:48:04;100565.25;;;5.48;82.27
15998;BME280;8103;51.340;12.326;2023-01-31T02:51:11;100563.19;;;5.50;81.49
15998;BME280;8103;51.340;12.326;2023-01-31T02:53:57;100572.41;;;5.48;82.00
15998;BME280;8103;51.340;12.326;2023-01-31T02:56:32;100569.34;;;5.44;81.35
15998;BME280;8103;51.340;12.326;2023-01-31T02:59:06;100568.50;;;5.50;81.39
15998;BME280;8103;51.340;12.326;2023-01-31T03:01:45;100579.13;;;5.50;81.58
15998;BME280;8103;51.340;12.326;2023-01-31T03:04:14;100579.75;;;5.52;80.57
15998;BME280;8103;51.340;12.326;2023-01-31T03:07:01;100581.19;;;5.48;80.85
15998;BME280;8103;51.340;12.326;2023-01-31T03:09:49;100586.91;;;5.52;81.05
15998;BME280;8103;51.340;12.326;2023-01-31T03:12:47;100595.09;;;5.50;81.24
15998;BME280;8103;51.340;12.326;2023-01-31T03:15:47;100590.59;;;5.51;81.52
15998;BME280;8103;51.340;12.326;2023-01-31T03:19:07;100606.75;;;5.49;81.28
15998;BME280;8103;51.340;12.326;2023-01-31T03:21:51;100605.94;;;5.49;81.09
15998;BME280;8103;51.340;12.326;2023-01-31T03:24:21;100609.84;;;5.46;81.45
15998;BME280;8103;51.340;12.326;2023-01-31T03:26:56;100611.44;;;5.47;82.03
15998;BME280;8103;51.340;12.326;2023-01-31T03:29:27;100606.97;;;5.48;81.74
15998;BME280;8103;51.340;12.326;2023-01-31T03:32:04;100618.84;;;5.45;81.55
15998;BME280;8103;51.340;12.326;2023-01-31T03:34:34;100612.28;;;5.48;81.72
15998;BME280;8103;51.340;12.326;2023-01-31T03:37:30;100616.78;;;5.47;81.40
15998;BME280;8103;51.340;12.326;2023-01-31T03:40:12;100609.22;;;5.44;81.18
15998;BME280;8103;51.340;12.326;2023-01-31T03:42:56;100608.84;;;5.41;81.69
15998;BME280;8103;51.340;12.326;2023-01-31T03:45:37;100609.84;;;5.40;81.73
15998;BME280;8103;51.340;12.326;2023-01-31T03:48:08;100608.22;;;5.39;82.25
15998;BME280;8103;51.340;12.326;2023-01-31T03:50:47;100612.28;;;5.41;81.93
15998;BME280;8103;51.340;12.326;2023-01-31T03:53:31;100612.28;;;5.41;82.30
15998;BME280;8103;51.340;12.326;2023-01-31T03:56:13;100616.78;;;5.47;81.79
15998;BME280;8103;51.340;12.326;2023-01-31T03:58:48;100622.88;;;5.54;81.33
15998;BME280;8103;51.340;12.326;2023-01-31T04:01:18;100614.69;;;5.56;80.94
15998;BME280;8103;51.340;12.326;2023-01-31T04:03:55;100618.81;;;5.58;80.41
15998;BME280;8103;51.340;12.326;2023-01-31T04:06:26;100613.06;;;5.61;80.54
15998;BME280;8103;51.340;12.326;2023-01-31T04:08:53;100616.31;;;5.63;81.20
15998;BME280;8103;51.340;12.326;2023-01-31T04:11:26;100628.19;;;5.61;80.58
15998;BME280;8103;51.340;12.326;2023-01-31T04:13:53;100625.75;;;5.59;80.53
15998;BME280;8103;51.340;12.326;2023-01-31T04:16:20;100631.69;;;5.61;80.87
15998;BME280;8103;51.340;12.326;2023-01-31T04:18:46;100624.28;;;5.63;81.53
15998;BME280;8103;51.340;12.326;2023-01-31T04:21:14;100617.19;;;5.51;84.19
15998;BME280;8103;51.340;12.326;2023-01-31T04:23:40;100618.44;;;5.35;85.61
15998;BME280;8103;51.340;12.326;2023-01-31T04:26:07;100606.41;;;5.26;85.77
15998;BME280;8103;51.340;12.326;2023-01-31T04:28:34;100617.88;;;5.20;86.62
15998;BME280;8103;51.340;12.326;2023-01-31T04:31:01;100625.22;;;5.18;86.99
15998;BME280;8103;51.340;12.326;2023-01-31T04:33:28;100620.94;;;5.17;86.27
15998;BME280;8103;51.340;12.326;2023-01-31T04:35:54;100629.91;;;5.16;87.00
15998;BME280;8103;51.340;12.326;2023-01-31T04:38:21;100632.78;;;5.15;86.65
15998;BME280;8103;51.340;12.326;2023-01-31T04:40:48;100636.06;;;5.10;87.17
15998;BME280;8103;51.340;12.326;2023-01-31T04:43:15;100637.47;;;5.06;87.47
15998;BME280;8103;51.340;12.326;2023-01-31T04:45:42;100639.72;;;5.09;87.95
15998;BME280;8103;51.340;12.326;2023-01-31T04:48:08;100641.78;;;5.07;87.18
15998;BME280;8103;51.340;12.326;2023-01-31T04:50:35;100644.25;;;5.02;88.35
15998;BME280;8103;51.340;12.326;2023-01-31T04:53:02;100650.78;;;5.00;87.88
15998;BME280;8103;51.340;12.326;2023-01-31T04:55:30;100645.06;;;4.96;88.01
15998;BME280;8103;51.340;12.326;2023-01-31T04:57:57;100643.84;;;4.92;88.38
15998;BME280;8103;51.340;12.326;2023-01-31T05:00:24;100645.47;;;4.93;88.12
15998;BME280;8103;51.340;12.326;2023-01-31T05:02:51;100639.13;;;4.94;88.50
15998;BME280;8103;51.340;12.326;2023-01-31T05:05:19;100628.50;;;4.94;88.29
15998;BME280;8103;51.340;12.326;2023-01-31T05:07:47;100629.94;;;4.97;87.72
15998;BME280;8103;51.340;12.326;2023-01-31T05:10:16;100634.03;;;4.99;87.58
15998;BME280;8103;51.340;12.326;2023-01-31T05:12:43;100631.16;;;4.94;87.69
15998;BME280;8103;51.340;12.326;2023-01-31T05:15:10;100637.50;;;4.93;87.43
15998;BME280;8103;51.340;12.326;2023-01-31T05:17:37;100638.94;;;4.89;87.62
15998;BME280;8103;51.340;12.326;2023-01-31T05:20:05;100638.94;;;4.89;87.28
15998;BME280;8103;51.340;12.326;2023-01-31T05:22:32;100629.94;;;4.90;87.51
15998;BME280;8103;51.340;12.326;2023-01-31T05:24:59;100624.63;;;4.90;87.66
15998;BME280;8103;51.340;12.326;2023-01-31T05:27:26;100630.56;;;4.92;87.47
15998;BME280;8103;51.340;12.326;2023-01-31T05:29:53;100633.22;;;4.92;87.36
15998;BME280;8103;51.340;12.326;2023-01-31T05:32:20;100644.22;;;4.96;87.11
15998;BME280;8103;51.340;12.326;2023-01-31T05:34:47;100648.53;;;4.97;86.96
15998;BME280;8103;51.340;12.326;2023-01-31T05:37:14;100641.78;;;5.01;87.22
15998;BME280;8103;51.340;12.326;2023-01-31T05:39:41;100640.56;;;5.03;87.06
15998;BME280;8103;51.340;12.326;2023-01-31T05:42:08;100643.41;;;5.02;87.34
15998;BME280;8103;51.340;12.326;2023-01-31T05:44:35;100648.53;;;5.03;86.21
15998;BME280;8103;51.340;12.326;2023-01-31T05:47:02;100644.25;;;5.02;86.42
15998;BME280;8103;51.340;12.326;2023-01-31T05:53:36;100648.09;;;5.06;86.46
15998;BME280;8103;51.340;12.326;2023-01-31T05:56:03;100647.53;;;5.04;86.42
15998;BME280;8103;51.340;12.326;2023-01-31T05:58:30;100647.91;;;5.08;86.58
15998;BME280;8103;51.340;12.326;2023-01-31T06:00:56;100658.13;;;5.11;86.37
15998;BME280;8103;51.340;12.326;2023-01-31T06:03:23;100657.09;;;5.18;85.64
15998;BME280;8103;51.340;12.326;2023-01-31T06:05:50;100664.66;;;5.21;85.54
15998;BME280;8103;51.340;12.326;2023-01-31T06:08:17;100654.03;;;5.28;84.83
15998;BME280;8103;51.340;12.326;2023-01-31T06:10:44;100655.25;;;5.25;84.89
15998;BME280;8103;51.340;12.326;2023-01-31T06:13:10;100649.56;;;5.22;85.08
15998;BME280;8103;51.340;12.326;2023-01-31T06:15:44;100659.97;;;5.23;84.76
15998;BME280;8103;51.340;12.326;2023-01-31T06:18:11;100666.72;;;5.26;84.86
15998;BME280;8103;51.340;12.326;2023-01-31T06:20:38;100664.47;;;5.29;85.35
15998;BME280;8103;51.340;12.326;2023-01-31T06:23:05;100662.41;;;5.31;84.54
15998;BME280;8103;51.340;12.326;2023-01-31T06:25:32;100665.69;;;5.33;84.60
15998;BME280;8103;51.340;12.326;2023-01-31T06:28:01;100667.94;;;5.36;83.97
15998;BME280;8103;51.340;12.326;2023-01-31T06:30:28;100673.25;;;5.36;83.97
15998;BME280;8103;51.340;12.326;2023-01-31T06:32:55;100668.75;;;5.30;84.00
15998;BME280;8103;51.340;12.326;2023-01-31T06:35:22;100669.13;;;5.34;83.60
15998;BME280;8103;51.340;12.326;2023-01-31T06:37:48;100675.28;;;5.34;83.24
15998;BME280;8103;51.340;12.326;2023-01-31T06:40:15;100678.56;;;5.36;83.06
15998;BME280;8103;51.340;12.326;2023-01-31T06:42:42;100681.41;;;5.41;82.99
15998;BME280;8103;51.340;12.326;2023-01-31T06:45:09;100683.06;;;5.42;82.60
15998;BME280;8103;51.340;12.326;2023-01-31T06:47:38;100685.91;;;5.47;82.77
15998;BME280;8103;51.340;12.326;2023-01-31T06:50:05;100684.69;;;5.50;82.89
15998;BME280;8103;51.340;12.326;2023-01-31T06:52:32;100682.25;;;5.48;81.97
15998;BME280;8103;51.340;12.326;2023-01-31T06:54:59;100686.94;;;5.46;82.14
15998;BME280;8103;51.340;12.326;2023-01-31T06:57:25;100692.44;;;5.45;82.00
15998;BME280;8103;51.340;12.326;2023-01-31T06:59:52;100689.59;;;5.46;81.44
15998;BME280;8103;51.340;12.326;2023-01-31T07:02:19;100697.34;;;5.48;81.58
15998;BME280;8103;51.340;12.326;2023-01-31T07:04:46;100707.78;;;5.49;81.59
15998;BME280;8103;51.340;12.326;2023-01-31T07:07:13;100698.38;;;5.53;80.65
15998;BME280;8103;51.340;12.326;2023-01-31T07:09:40;100714.53;;;5.58;79.81
15998;BME280;8103;51.340;12.326;2023-01-31T07:12:06;100703.47;;;5.55;80.23
15998;BME280;8103;51.340;12.326;2023-01-31T07:14:33;100704.31;;;5.55;79.52
15998;BME280;8103;51.340;12.326;2023-01-31T07:17:00;100711.25;;;5.56;79.60
15998;BME280;8103;51.340;12.326;2023-01-31T07:19:27;100702.25;;;5.57;79.19
15998;BME280;8103;51.340;12.326;2023-01-31T07:21:54;100704.50;;;5.60;78.62
15998;BME280;8103;51.340;12.326;2023-01-31T07:24:20;100711.03;;;5.58;78.49
15998;BME280;8103;51.340;12.326;2023-01-31T07:26:51;100710.00;;;5.59;78.11
15998;BME280;8103;51.340;12.326;2023-01-31T07:29:18;100706.34;;;5.60;76.93
15998;BME280;8103;51.340;12.326;2023-01-31T07:31:47;100705.53;;;5.59;76.80
15998;BME280;8103;51.340;12.326;2023-01-31T07:34:13;100704.31;;;5.55;76.46
15998;BME280;8103;51.340;12.326;2023-01-31T07:36:40;100691.22;;;5.47;76.75
15998;BME280;8103;51.340;12.326;2023-01-31T07:39:07;100686.72;;;5.48;76.81
15998;BME280;8103;51.340;12.326;2023-01-31T07:41:34;100688.75;;;5.46;77.19
15998;BME280;8103;51.340;12.326;2023-01-31T07:44:01;100675.09;;;5.42;77.16
15998;BME280;8103;51.340;12.326;2023-01-31T07:46:28;100689.59;;;5.46;77.05
15998;BME280;8103;51.340;12.326;2023-01-31T07:48:55;100679.38;;;5.43;77.24
15998;BME280;8103;51.340;12.326;2023-01-31T07:51:22;100677.34;;;5.45;78.24
15998;BME280;8103;51.340;12.326;2023-01-31T07:53:49;100677.34;;;5.45;77.46
15998;BME280;8103;51.340;12.326;2023-01-31T07:56:19;100672.56;;;5.60;77.97
15998;BME280;8103;51.340;12.326;2023-01-31T07:58:48;100674.00;;;5.69;77.09
15998;BME280;8103;51.340;12.326;2023-01-31T08:01:22;100675.19;;;5.80;76.81
15998;BME280;8103;51.340;12.326;2023-01-31T08:04:12;100673.56;;;5.85;76.73
15998;BME280;8103;51.340;12.326;2023-01-31T08:06:50;100676.22;;;5.92;76.00
15998;BME280;8103;51.340;12.326;2023-01-31T08:09:19;100675.22;;;5.86;75.70
15998;BME280;8103;51.340;12.326;2023-01-31T08:11:46;100666.19;;;5.87;75.78
15998;BME280;8103;51.340;12.326;2023-01-31T08:18:19;100669.22;;;5.97;75.46
15998;BME280;8103;51.340;12.326;2023-01-31T08:20:46;100664.53;;;5.99;75.21
15998;BME280;8103;51.340;12.326;2023-01-31T08:23:13;100665.94;;;6.08;75.36
15998;BME280;8103;51.340;12.326;2023-01-31T08:25:40;100664.47;;;6.12;74.90
15998;BME280;8103;51.340;12.326;2023-01-31T08:28:07;100675.13;;;6.12;74.88
15998;BME280;8103;51.340;12.326;2023-01-31T08:30:39;100664.06;;;6.09;74.84
15998;BME280;8103;51.340;12.326;2023-01-31T08:33:08;100664.25;;;6.14;74.82
15998;BME280;8103;51.340;12.326;2023-01-31T08:35:36;100662.81;;;6.18;74.64
15998;BME280;8103;51.340;12.326;2023-01-31T08:38:04;100653.41;;;6.15;74.17
15998;BME280;8103;51.340;12.326;2023-01-31T08:40:42;100646.00;;;6.17;74.40
15998;BME280;8103;51.340;12.326;2023-01-31T08:43:09;100653.41;;;6.15;74.32
15998;BME280;8103;51.340;12.326;2023-01-31T08:45:36;100643.97;;;6.19;74.61
15998;BME280;8103;51.340;12.326;2023-01-31T08:52:09;100637.00;;;6.18;75.23
15998;BME280;8103;51.340;12.326;2023-01-31T08:54:36;100635.34;;;6.17;74.54
15998;BME280;8103;51.340;12.326;2023-01-31T08:57:02;100625.09;;;6.21;74.54
15998;BME280;8103;51.340;12.326;2023-01-31T08:59:29;100629.75;;;6.32;74.42
15998;BME280;8103;51.340;12.326;2023-01-31T09:01:56;100625.88;;;6.28;73.28
15998;BME280;8103;51.340;12.326;2023-01-31T09:04:23;100617.25;;;6.32;74.23
15998;BME280;8103;51.340;12.326;2023-01-31T09:06:50;100630.34;;;6.34;73.72
15998;BME280;8103;51.340;12.326;2023-01-31T09:09:17;100623.19;;;6.34;73.73
15998;BME280;8103;51.340;12.326;2023-01-31T09:11:44;100616.84;;;6.35;74.00
15998;BME280;8103;51.340;12.326;2023-01-31T09:14:10;100618.88;;;6.33;73.58
15998;BME280;8103;51.340;12.326;2023-01-31T09:16:38;100622.78;;;6.37;73.28
15998;BME280;8103;51.340;12.326;2023-01-31T09:19:05;100610.31;;;6.31;73.82
15998;BME280;8103;51.340;12.326;2023-01-31T09:21:32;100591.81;;;6.36;72.91
15998;BME280;8103;51.340;12.326;2023-01-31T09:24:00;100596.28;;;6.42;72.68
15998;BME280;8103;51.340;12.326;2023-01-31T09:26:30;100600.94;;;6.53;72.40
15998;BME280;8103;51.340;12.326;2023-01-31T09:28:58;100600.34;;;6.51;71.68
15998;BME280;8103;51.340;12.326;2023-01-31T09:31:27;100602.16;;;6.57;72.10
15998;BME280;8103;51.340;12.326;2023-01-31T09:33:54;100601.28;;;6.64;71.99
15998;BME280;8103;51.340;12.326;2023-01-31T09:36:23;100591.16;;;6.72;72.01
15998;BME280;8103;51.340;12.326;2023-01-31T09:38:55;100599.22;;;6.66;71.69
15998;BME280;8103;51.340;12.326;2023-01-31T09:41:41;100587.13;;;6.63;71.44
15998;BME280;8103;51.340;12.326;2023-01-31T09:44:22;100592.84;;;6.67;71.23
15998;BME280;8103;51.340;12.326;2023-01-31T09:47:14;100591.81;;;6.68;71.00
15998;BME280;8103;51.340;12.326;2023-01-31T09:49:51;100584.44;;;6.70;70.40
15998;BME280;8103;51.340;12.326;2023-01-31T09:52:21;100579.69;;;6.72;70.62
15998;BME280;8103;51.340;12.326;2023-01-31T09:59:06;100570.75;;;7.09;69.56
15998;BME280;8103;51.340;12.326;2023-01-31T10:02:15;100578.16;;;7.07;69.02
15998;BME280;8103;51.340;12.326;2023-01-31T10:07:53;100581.56;;;7.32;68.08
15998;BME280;8103;51.340;12.326;2023-01-31T10:10:38;100582.63;;;7.49;67.70
15998;BME280;8103;51.340;12.326;2023-01-31T10:13:43;100577.97;;;7.62;67.28
15998;BME280;8103;51.340;12.326;2023-01-31T10:16:32;100554.19;;;7.61;67.05
15998;BME280;8103;51.340;12.326;2023-01-31T10:19:15;100571.22;;;7.60;67.11
15998;BME280;8103;51.340;12.326;2023-01-31T10:21:52;100570.03;;;7.56;67.09
15998;BME280;8103;51.340;12.326;2023-01-31T10:24:31;100574.91;;;7.41;67.46
15998;BME280;8103;51.340;12.326;2023-01-31T10:27:16;100575.22;;;7.33;67.87
15998;BME280;8103;51.340;12.326;2023-01-31T10:29:51;100573.00;;;7.30;67.93
15998;BME280;8103;51.340;12.326;2023-01-31T10:32:39;100561.59;;;7.41;68.01
15998;BME280;8103;51.340;12.326;2023-01-31T10:35:38;100570.34;;;7.48;68.04
15998;BME280;8103;51.340;12.326;2023-01-31T10:38:18;100561.88;;;7.51;67.32
15998;BME280;8103;51.340;12.326;2023-01-31T10:40:57;100543.97;;;7.58;67.58
15998;BME280;8103;51.340;12.326;2023-01-31T10:43:59;100544.91;;;7.45;67.74
15998;BME280;8103;51.340;12.326;2023-01-31T10:46:27;100543.81;;;7.35;68.54
15998;BME280;8103;51.340;12.326;2023-01-31T10:48:54;100533.44;;;7.27;68.60
15998;BME280;8103;51.340;12.326;2023-01-31T10:51:36;100523.06;;;7.19;69.05
15998;BME280;8103;51.340;12.326;2023-01-31T10:54:22;100508.41;;;7.10;69.89
15998;BME280;8103;51.340;12.326;2023-01-31T10:56:51;100496.19;;;7.02;69.89
15998;BME280;8103;51.340;12.326;2023-01-31T10:59:28;100489.66;;;6.98;70.10
15998;BME280;8103;51.340;12.326;2023-01-31T11:01:57;100497.81;;;7.03;70.42
15998;BME280;8103;51.340;12.326;2023-01-31T11:04:40;100494.03;;;7.11;70.05
15998;BME280;8103;51.340;12.326;2023-01-31T11:07:09;100490.63;;;7.22;70.08
15998;BME280;8103;51.340;12.326;2023-01-31T11:09:42;100477.91;;;7.24;69.91
15998;BME280;8103;51.340;12.326;2023-01-31T11:12:12;100473.38;;;7.24;69.99
15998;BME280;8103;51.340;12.326;2023-01-31T11:14:39;100458.56;;;7.28;69.43
15998;BME280;8103;51.340;12.326;2023-01-31T11:17:21;100453.75;;;7.19;69.69
15998;BME280;8103;51.340;12.326;2023-01-31T11:19:52;100454.56;;;7.19;69.95
15998;BME280;8103;51.340;12.326;2023-01-31T11:22:31;100467.06;;;7.19;69.90
15998;BME280;8103;51.340;12.326;2023-01-31T11:25:01;100463.69;;;7.12;70.49
15998;BME280;8103;51.340;12.326;2023-01-31T11:27:41;100439.91;;;7.10;71.16
15998;BME280;8103;51.340;12.326;2023-01-31T11:30:41;100429.75;;;7.19;70.62
15998;BME280;8103;51.340;12.326;2023-01-31T11:33:43;100423.03;;;7.16;70.56
15998;BME280;8103;51.340;12.326;2023-01-31T11:36:16;100419.75;;;7.14;71.38
15998;BME280;8103;51.340;12.326;2023-01-31T11:38:49;100399.25;;;7.15;71.04
15998;BME280;8103;51.340;12.326;2023-01-31T11:44:20;100399.78;;;7.05;72.50
15998;BME280;8103;51.340;12.326;2023-01-31T11:47:03;100389.94;;;7.06;73.42
15998;BME280;8103;51.340;12.326;2023-01-31T11:49:38;100399.69;;;7.12;73.40
15998;BME280;8103;51.340;12.326;2023-01-31T11:52:20;100372.31;;;7.05;73.37
15998;BME280;8103;51.340;12.326;2023-01-31T11:55:16;100367.47;;;7.13;72.84
15998;BME280;8103;51.340;12.326;2023-01-31T11:57:44;100356.31;;;7.05;73.33
15998;BME280;8103;51.340;12.326;2023-01-31T12:00:26;100354.72;;;7.04;73.95
15998;BME280;8103;51.340;12.326;2023-01-31T12:03:05;100341.69;;;6.96;75.12
15998;BME280;8103;51.340;12.326;2023-01-31T12:05:43;100321.25;;;6.90;75.20
15998;BME280;8103;51.340;12.326;2023-01-31T12:08:40;100325.91;;;6.94;74.61
15998;BME280;8103;51.340;12.326;2023-01-31T12:13:49;100309.97;;;7.06;73.03
15998;BME280;8103;51.340;12.326;2023-01-31T12:16:22;100299.91;;;7.08;72.93
15998;BME280;8103;51.340;12.326;2023-01-31T12:18:53;100298.41;;;7.12;72.59
15998;BME280;8103;51.340;12.326;2023-01-31T12:27:00;100282.19;;;7.25;72.33
15998;BME280;8103;51.340;12.326;2023-01-31T12:33:14;100284.53;;;7.21;72.39
15998;BME280;8103;51.340;12.326;2023-01-31T12:36:17;100285.66;;;7.14;73.06
15998;BME280;8103;51.340;12.326;2023-01-31T12:39:14;100289.34;;;7.13;73.41
15998;BME280;8103;51.340;12.326;2023-01-31T12:42:30;100277.97;;;7.06;73.97
15998;BME280;8103;51.340;12.326;2023-01-31T12:49:23;100257.34;;;7.01;74.23
15998;BME280;8103;51.340;12.326;2023-01-31T12:52:24;100233.25;;;7.08;74.01
15998;BME280;8103;51.340;12.326;2023-01-31T12:58:30;100228.53;;;7.21;73.17
15998;BME280;8103;51.340;12.326;2023-01-31T13:01:33;100236.41;;;7.28;73.14
15998;BME280;8103;51.340;12.326;2023-01-31T13:06:48;100249.13;;;7.14;73.63
15998;BME280;8103;51.340;12.326;2023-01-31T13:09:27;100245.53;;;7.09;73.77
15998;BME280;8103;51.340;12.326;2023-01-31T13:12:27;100242.75;;;7.04;73.82
15998;BME280;8103;51.340;12.326;2023-01-31T13:15:36;100235.00;;;7.02;74.16
15998;BME280;8103;51.340;12.326;2023-01-31T13:18:08;100227.69;;;6.98;74.26
15998;BME280;8103;51.340;12.326;2023-01-31T13:21:00;100237.97;;;6.94;74.67
15998;BME280;8103;51.340;12.326;2023-01-31T13:23:38;100228.47;;;6.98;74.79
15998;BME280;8103;51.340;12.326;2023-01-31T13:26:24;100205.91;;;7.01;74.43
15998;BME280;8103;51.340;12.326;2023-01-31T13:29:05;100208.69;;;7.06;74.30
15998;BME280;8103;51.340;12.326;2023-01-31T13:31:42;100204.28;;;7.11;73.99
15998;BME280;8103;51.340;12.326;2023-01-31T13:34:19;100202.34;;;7.18;73.98
15998;BME280;8103;51.340;12.326;2023-01-31T13:36:59;100211.38;;;7.17;73.67
15998;BME280;8103;51.340;12.326;2023-01-31T13:39:32;100202.56;;;7.17;73.76
15998;BME280;8103;51.340;12.326;2023-01-31T13:42:01;100200.38;;;7.14;73.84
15998;BME280;8103;51.340;12.326;2023-01-31T13:44:28;100206.84;;;7.18;73.74
15998;BME280;8103;51.340;12.326;2023-01-31T13:47:28;100196.56;;;7.21;73.49
15998;BME280;8103;51.340;12.326;2023-01-31T13:50:08;100189.81;;;7.19;73.38
15998;BME280;8103;51.340;12.326;2023-01-31T13:52:51;100203.72;;;7.21;73.08
15998;BME280;8103;51.340;12.326;2023-01-31T13:55:37;100201.06;;;7.21;73.68
15998;BME280;8103;51.340;12.326;2023-01-31T14:03:29;100211.13;;;7.19;73.32
15998;BME280;8103;51.340;12.326;2023-01-31T14:05:59;100208.47;;;7.19;73.65
15998;BME280;8103;51.340;12.326;2023-01-31T14:12:35;100199.91;;;7.17;74.22
15998;BME280;8103;51.340;12.326;2023-01-31T14:15:47;100206.03;;;7.17;74.52
15998;BME280;8103;51.340;12.326;2023-01-31T14:18:44;100194.56;;;7.17;74.60
15998;BME280;8103;51.340;12.326;2023-01-31T14:21:43;100207.75;;;7.12;74.19
15998;BME280;8103;51.340;12.326;2023-01-31T14:27:58;100205.31;;;6.99;74.59
15998;BME280;8103;51.340;12.326;2023-01-31T14:30:36;100206.34;;;6.98;75.02
15998;BME280;8103;51.340;12.326;2023-01-31T14:53:27;100204.72;;;6.97;79.33
15998;BME280;8103;51.340;12.326;2023-01-31T14:56:25;100179.19;;;6.78;80.78
15998;BME280;8103;51.340;12.326;2023-01-31T14:59:01;100203.03;;;6.73;81.22
15998;BME280;8103;51.340;12.326;2023-01-31T15:01:35;100201.88;;;6.69;82.21
15998;BME280;8103;51.340;12.326;2023-01-31T15:04:04;100221.66;;;6.61;82.48
15998;BME280;8103;51.340;12.326;2023-01-31T15:06:38;100194.66;;;6.57;82.42
15998;BME280;8103;51.340;12.326;2023-01-31T15:11:44;100202.75;;;6.51;82.85
15998;BME280;8103;51.340;12.326;2023-01-31T15:17:11;100207.13;;;6.57;81.95